DNPO

Port Harcourt International Airport

Port Harcourt, Nigeria
METAR DNPO 162200Z VRB02KT 6000 TS BKN008 FEW020CB 26/26 Q1011 NOSIG
Observed Flight Rules
Jan-16 @ 22:00 UTC (33 minutes ago) Instrument Flight Rules
Wind Visibility Clouds Conditions
Variable at 2 knots 6,003 meters
  • Broken at 800' AGL
  • Few at 2,000' AGL
  • Thunderstorm
Temperatures Readings
Current 26°C / 79°F
Dewpoint 26°C / 79°F
Humidity 100%
Altimeter 29.85" Hg
Pressure 1010.92 hPa
Elevation 18
METAR DNPO 162200Z VRB02KT 6000 TS BKN008 FEW020CB 26/26 Q1011 NOSIG
Observed Flight Rules
Jan-16 @ 22:00 UTC
(33 minutes ago)
IFR
Wind Visibility
Variable at 2 knots 6,003 meters
Clouds
  • Broken at 800' AGL
  • Few at 2,000' AGL
Conditions
  • Thunderstorm
Temperature Dewpoint
26°C / 79°F 26°C / 79°F
Humidity Altimeter Pressure
100% 29.85" Hg 1010.92 hPa